Time;durP1;ratioP1;P1;durP2;ratioP2;P2;SDS_P1;SDS_P2;PMS_P1;PMS_P2;Temp;Humidity;BMP_temperature;BMP_pressure;BME280_temperature;BME280_humidity;BME280_pressure;Samples;Min_cycle;Max_cycle;Signal;HPM_P1;HPM_P2
2022/04/13 00:02:07;;;;;;;13.10;4.53;;;15.10;92.70;;;;;;5071284;28;20099;-81
2022/04/13 00:04:32;;;;;;;12.07;3.83;;;15.10;92.80;;;;;;5071240;28;20494;-81
2022/04/13 00:06:58;;;;;;;11.32;4.13;;;15.10;93.00;;;;;;5070992;28;20025;-81
2022/04/13 00:09:25;;;;;;;14.45;4.60;;;15.00;93.10;;;;;;5071183;28;20032;-81
2022/04/13 00:11:54;;;;;;;12.50;4.90;;;15.10;93.10;;;;;;5071038;28;20029;-81
2022/04/13 00:14:22;;;;;;;12.30;4.22;;;15.00;93.10;;;;;;5071229;28;20036;-81
2022/04/13 00:16:51;;;;;;;10.35;4.07;;;15.00;93.10;;;;;;5071038;28;20025;-81
2022/04/13 00:19:17;;;;;;;9.30;3.78;;;15.00;93.10;;;;;;5071049;28;20036;-80
2022/04/13 00:21:43;;;;;;;8.52;3.50;;;15.00;93.10;;;;;;5071151;28;20464;-81
2022/04/13 00:24:11;;;;;;;12.80;3.97;;;15.10;92.90;;;;;;5071095;28;20106;-81
2022/04/13 00:26:37;;;;;;;8.23;3.22;;;15.00;92.80;;;;;;5071100;28;20024;-81
2022/04/13 00:29:03;;;;;;;8.43;3.20;;;15.00;92.90;;;;;;5072668;28;20031;-81
2022/04/13 00:31:29;;;;;;;11.60;3.45;;;15.00;93.00;;;;;;5071164;28;20037;-80
2022/04/13 00:33:54;;;;;;;7.85;3.15;;;15.00;93.20;;;;;;5070840;28;20028;-81
2022/04/13 00:36:20;;;;;;;11.48;3.78;;;15.00;93.40;;;;;;5071075;28;20579;-81
2022/04/13 00:38:46;;;;;;;8.20;3.35;;;14.90;93.50;;;;;;5070735;28;20036;-81
2022/04/13 00:41:14;;;;;;;9.80;3.22;;;14.90;93.50;;;;;;5070975;28;20074;-81
2022/04/13 00:43:40;;;;;;;10.55;3.88;;;14.90;93.60;;;;;;5070692;28;20020;-81
2022/04/13 00:46:06;;;;;;;8.70;3.78;;;14.90;93.60;;;;;;5053021;28;20055;-81
2022/04/13 00:48:36;;;;;;;8.32;4.00;;;14.90;93.60;;;;;;5070533;28;20389;-81
2022/04/13 00:51:03;;;;;;;7.90;3.67;;;14.90;93.50;;;;;;5053247;28;20081;-81
2022/04/13 00:53:30;;;;;;;6.13;3.03;;;14.90;93.40;;;;;;5036081;28;20044;-81
2022/04/13 00:55:58;;;;;;;7.43;3.17;;;14.90;93.40;;;;;;5050904;28;20523;-81
2022/04/13 00:58:29;;;;;;;10.52;3.42;;;14.80;93.40;;;;;;5068448;28;20032;-81
2022/04/13 01:00:55;;;;;;;7.32;2.88;;;14.80;93.60;;;;;;5072053;28;20020;-81
2022/04/13 01:03:24;;;;;;;7.20;3.20;;;14.80;93.80;;;;;;5072837;28;20097;-81
2022/04/13 01:05:51;;;;;;;9.82;2.85;;;14.70;94.20;;;;;;5073047;28;20111;-81
2022/04/13 01:08:18;;;;;;;7.25;3.10;;;14.70;93.90;;;;;;5072653;28;20043;-81
2022/04/13 01:10:45;;;;;;;7.25;3.10;;;14.70;93.90;;;;;;5054779;28;20025;-80
2022/04/13 01:13:12;;;;;;;6.50;2.90;;;14.60;94.00;;;;;;5074275;28;20025;-81
2022/04/13 01:15:39;;;;;;;6.78;2.88;;;14.60;94.00;;;;;;5074270;28;20040;-81
2022/04/13 01:18:05;;;;;;;8.60;3.70;;;14.60;93.90;;;;;;5056105;28;20032;-81
2022/04/13 01:20:32;;;;;;;9.85;3.47;;;14.60;93.70;;;;;;5056734;28;20124;-81
2022/04/13 01:22:57;;;;;;;10.15;4.15;;;14.70;93.60;;;;;;5074196;28;20123;-81
2022/04/13 01:25:23;;;;;;;9.75;4.15;;;14.70;93.60;;;;;;5073981;28;20496;-80
2022/04/13 01:27:49;;;;;;;7.45;3.45;;;14.70;93.50;;;;;;5073896;28;20039;-81
2022/04/13 01:30:15;;;;;;;6.40;2.80;;;14.70;93.40;;;;;;5074202;28;20099;-81
2022/04/13 01:32:41;;;;;;;6.35;3.13;;;14.70;93.20;;;;;;5073936;28;20025;-81
2022/04/13 01:35:07;;;;;;;5.45;2.50;;;14.70;93.00;;;;;;5074029;28;20021;-81
2022/04/13 01:37:34;;;;;;;7.95;2.67;;;14.80;92.90;;;;;;5074052;28;20141;-81
2022/04/13 01:40:00;;;;;;;9.68;3.03;;;14.70;93.10;;;;;;5073902;28;20032;-81
2022/04/13 01:42:25;;;;;;;7.25;3.03;;;14.70;93.40;;;;;;5073650;28;20033;-81
2022/04/13 01:44:51;;;;;;;9.35;2.90;;;14.70;93.40;;;;;;5073865;28;20103;-81
2022/04/13 01:47:17;;;;;;;5.90;2.80;;;14.70;93.30;;;;;;5073762;28;20705;-80
2022/04/13 01:49:43;;;;;;;8.38;2.50;;;14.70;93.30;;;;;;5074043;28;20035;-81
2022/04/13 01:52:11;;;;;;;6.38;2.67;;;14.60;93.20;;;;;;5073800;28;20119;-81
2022/04/13 01:54:37;;;;;;;6.80;2.65;;;14.60;93.20;;;;;;5055776;28;20043;-81
2022/04/13 01:57:03;;;;;;;9.90;3.13;;;14.60;93.30;;;;;;5073579;28;20043;-81
2022/04/13 01:59:29;;;;;;;5.88;2.63;;;14.50;93.40;;;;;;5055680;28;20044;-81
2022/04/13 02:01:55;;;;;;;5.35;2.47;;;14.50;93.50;;;;;;5038857;28;20032;-81
2022/04/13 02:04:23;;;;;;;5.68;2.60;;;14.50;93.60;;;;;;5073175;28;20024;-80
2022/04/13 02:06:50;;;;;;;9.20;2.30;;;14.50;93.70;;;;;;5073316;28;20040;-81
2022/04/13 02:09:17;;;;;;;5.55;2.80;;;14.50;93.70;;;;;;5073468;28;20032;-81
2022/04/13 02:11:43;;;;;;;4.40;2.50;;;14.50;93.70;;;;;;5054081;28;20040;-80
2022/04/13 02:14:09;;;;;;;7.20;2.58;;;14.40;93.90;;;;;;5073327;28;20550;-80
2022/04/13 02:16:35;;;;;;;8.18;3.30;;;14.40;94.20;;;;;;5073103;28;20028;-80
2022/04/13 02:19:02;;;;;;;8.45;3.13;;;14.30;94.20;;;;;;5055291;28;20056;-80
2022/04/13 02:21:28;;;;;;;6.38;2.90;;;14.20;94.30;;;;;;5073093;28;20033;-80
2022/04/13 02:26:22;;;;;;;8.52;2.67;;;14.20;94.30;;;;;;5052289;28;20040;-84
2022/04/13 02:28:49;;;;;;;7.53;3.10;;;14.20;94.20;;;;;;5055091;28;20107;-83
2022/04/13 02:31:15;;;;;;;8.95;2.97;;;14.10;94.10;;;;;;5055310;28;20044;-83
2022/04/13 02:33:41;;;;;;;7.60;3.10;;;14.10;94.20;;;;;;5072995;28;20408;-83
2022/04/13 02:36:07;;;;;;;5.82;2.35;;;14.10;94.30;;;;;;5055078;28;20036;-83
2022/04/13 02:38:33;;;;;;;7.80;2.90;;;14.10;94.30;;;;;;5054964;28;20492;-83
2022/04/13 02:40:59;;;;;;;8.88;3.75;;;14.00;94.30;;;;;;5072985;28;20028;-83
2022/04/13 02:43:29;;;;;;;12.10;4.25;;;14.00;94.30;;;;;;5072712;28;20032;-83
2022/04/13 02:45:56;;;;;;;8.50;3.78;;;14.00;94.40;;;;;;5072679;28;20108;-83
2022/04/13 02:48:22;;;;;;;7.47;3.50;;;14.10;94.40;;;;;;5072638;28;20028;-83
2022/04/13 02:50:48;;;;;;;5.55;2.80;;;14.10;94.30;;;;;;5072824;28;20150;-83
2022/04/13 02:53:15;;;;;;;8.75;2.92;;;14.10;94.30;;;;;;5072245;28;20027;-83
2022/04/13 02:55:41;;;;;;;9.13;3.50;;;14.10;94.40;;;;;;5071825;28;20658;-83
2022/04/13 02:58:07;;;;;;;8.20;2.97;;;14.10;94.40;;;;;;5072392;28;20124;-83
2022/04/13 03:00:33;;;;;;;6.78;2.97;;;14.10;94.50;;;;;;5072607;28;20125;-83
2022/04/13 03:02:58;;;;;;;9.23;3.28;;;14.10;94.40;;;;;;5072340;28;20475;-83
2022/04/13 03:05:24;;;;;;;8.13;3.03;;;14.00;94.60;;;;;;5071761;28;20027;-84
2022/04/13 03:07:51;;;;;;;15.18;3.30;;;14.00;94.50;;;;;;5072021;28;20032;-83
2022/04/13 03:10:16;;;;;;;7.32;3.13;;;13.90;94.60;;;;;;5054338;28;20047;-84
2022/04/13 03:12:42;;;;;;;8.30;2.97;;;13.90;94.80;;;;;;5072297;28;20028;-83
2022/04/13 03:15:09;;;;;;;8.93;3.00;;;13.80;94.80;;;;;;5072306;28;20518;-83
2022/04/13 03:17:35;;;;;;;5.10;2.78;;;13.80;94.80;;;;;;5072031;28;20029;-83
2022/04/13 03:20:01;;;;;;;9.82;3.15;;;13.80;94.80;;;;;;5072020;28;20039;-83
2022/04/13 03:22:27;;;;;;;8.55;2.47;;;13.70;95.00;;;;;;5071562;28;20035;-83
2022/04/13 03:24:53;;;;;;;7.28;3.13;;;13.70;95.00;;;;;;5071752;28;20086;-84
2022/04/13 03:27:19;;;;;;;8.07;3.00;;;13.70;95.00;;;;;;5071701;28;20020;-84
2022/04/13 03:29:45;;;;;;;8.93;3.20;;;13.60;95.00;;;;;;5071891;28;20400;-83
2022/04/13 03:32:11;;;;;;;11.57;2.85;;;13.60;95.10;;;;;;5071757;28;20033;-83
2022/04/13 03:34:37;;;;;;;7.40;2.92;;;13.60;95.10;;;;;;5071801;28;20032;-83
2022/04/13 03:37:03;;;;;;;7.05;2.78;;;13.60;95.10;;;;;;5071543;28;20496;-83
2022/04/13 03:39:29;;;;;;;8.75;3.20;;;13.60;95.20;;;;;;5053726;28;20135;-84
2022/04/13 03:41:55;;;;;;;10.68;3.10;;;13.60;95.30;;;;;;5053717;28;20483;-83
2022/04/13 03:44:21;;;;;;;7.97;3.08;;;13.50;95.30;;;;;;5071693;28;20074;-84
2022/04/13 03:46:47;;;;;;;5.82;2.40;;;13.50;95.40;;;;;;5071468;28;20029;-84
2022/04/13 03:49:13;;;;;;;8.20;3.33;;;13.60;95.50;;;;;;5053816;28;20404;-84
2022/04/13 03:51:39;;;;;;;7.05;3.25;;;13.50;95.50;;;;;;5053468;28;20534;-84
2022/04/13 03:54:05;;;;;;;7.13;3.20;;;13.60;95.50;;;;;;5071413;28;20123;-84
2022/04/13 03:56:30;;;;;;;6.50;3.33;;;13.50;95.60;;;;;;5071477;28;20111;-84
2022/04/13 03:59:00;;;;;;;9.02;3.17;;;13.50;95.50;;;;;;5071305;28;20025;-83
2022/04/13 04:01:26;;;;;;;6.43;2.67;;;13.60;95.60;;;;;;5071272;28;20036;-83
2022/04/13 04:03:53;;;;;;;7.80;3.33;;;13.60;95.50;;;;;;5071462;28;20047;-84
2022/04/13 04:06:19;;;;;;;11.57;3.47;;;13.50;95.50;;;;;;5071195;28;20027;-83
2022/04/13 04:08:45;;;;;;;7.55;2.80;;;13.60;95.60;;;;;;5071075;28;20032;-83
2022/04/13 04:11:11;;;;;;;7.68;2.70;;;13.50;95.50;;;;;;5058837;28;20036;-88
2022/04/13 04:13:37;;;;;;;6.28;3.03;;;13.50;95.50;;;;;;5049932;28;20024;-86
2022/04/13 04:16:03;;;;;;;9.02;3.17;;;13.50;95.50;;;;;;5070226;28;20111;-87
2022/04/13 04:18:29;;;;;;;9.07;3.28;;;13.50;95.50;;;;;;5069762;28;20070;-87
2022/04/13 04:20:55;;;;;;;7.78;3.30;;;13.50;95.60;;;;;;5051952;28;20029;-87
2022/04/13 04:23:21;;;;;;;8.90;3.78;;;13.50;95.60;;;;;;5069849;28;20461;-88
2022/04/13 04:25:49;;;;;;;6.97;3.08;;;13.50;95.60;;;;;;5068605;28;20158;-87
2022/04/13 04:28:15;;;;;;;7.95;3.33;;;13.60;95.60;;;;;;5063180;28;20021;-84
2022/04/13 04:30:42;;;;;;;16.42;6.88;;;13.50;95.60;;;;;;5051179;28;20043;-84
2022/04/13 04:33:09;;;;;;;11.70;5.13;;;13.50;95.80;;;;;;5069034;28;20025;-85
2022/04/13 04:35:36;;;;;;;11.13;3.50;;;13.60;96.00;;;;;;5069161;28;20036;-85
2022/04/13 04:38:02;;;;;;;11.13;3.25;;;13.60;95.70;;;;;;5069434;28;20221;-84
2022/04/13 04:40:29;;;;;;;7.28;2.97;;;13.70;95.60;;;;;;5069710;28;20062;-84
2022/04/13 04:42:55;;;;;;;7.55;2.95;;;13.70;95.60;;;;;;5068022;28;20142;-84
2022/04/13 04:45:21;;;;;;;7.25;2.83;;;13.70;95.60;;;;;;5069371;28;20048;-84
2022/04/13 04:47:49;;;;;;;10.73;3.28;;;13.80;95.70;;;;;;5050925;28;20106;-85
2022/04/13 04:50:16;;;;;;;10.30;3.58;;;13.80;95.60;;;;;;5069308;28;20075;-84
2022/04/13 04:52:43;;;;;;;8.38;3.42;;;13.70;95.50;;;;;;5069050;28;20024;-84
2022/04/13 04:55:10;;;;;;;9.48;3.10;;;13.70;95.60;;;;;;5069467;28;20039;-81
2022/04/13 04:57:36;;;;;;;9.80;3.50;;;13.80;95.60;;;;;;5032881;28;20093;-82
2022/04/13 05:00:08;;;;;;;10.35;3.28;;;13.80;95.60;;;;;;5069283;28;20151;-82
2022/04/13 05:02:35;;;;;;;10.95;3.45;;;13.70;95.70;;;;;;5050346;28;20441;-81
2022/04/13 05:05:02;;;;;;;10.73;4.07;;;13.70;95.80;;;;;;5069018;28;20280;-81
2022/04/13 05:07:27;;;;;;;10.23;3.78;;;13.70;95.80;;;;;;5068469;28;20464;-82
2022/04/13 05:09:53;;;;;;;12.20;3.60;;;13.70;95.90;;;;;;5068900;28;20056;-82
2022/04/13 05:12:19;;;;;;;10.40;3.47;;;13.70;95.90;;;;;;5067761;28;20048;-82
2022/04/13 05:14:45;;;;;;;12.85;3.78;;;13.70;95.90;;;;;;5065942;28;20353;-82
2022/04/13 05:17:10;;;;;;;8.32;3.00;;;13.70;96.10;;;;;;5035731;28;20136;-81
2022/04/13 05:19:36;;;;;;;10.40;3.53;;;13.70;96.10;;;;;;5068457;28;20532;-83
2022/04/13 05:22:02;;;;;;;9.55;3.75;;;13.70;96.10;;;;;;5068062;28;20465;-82
2022/04/13 05:24:28;;;;;;;10.77;4.22;;;13.80;96.10;;;;;;5050322;28;20120;-82
2022/04/13 05:26:54;;;;;;;10.27;4.32;;;13.80;96.10;;;;;;5067407;28;20025;-82
2022/04/13 05:29:21;;;;;;;9.13;3.50;;;13.70;96.20;;;;;;5068498;28;20451;-82
2022/04/13 05:31:47;;;;;;;13.63;4.53;;;13.70;96.30;;;;;;5068167;28;20028;-83
2022/04/13 05:34:13;;;;;;;8.88;3.67;;;13.80;96.50;;;;;;5068885;28;20040;-81
2022/04/13 05:36:39;;;;;;;7.70;3.60;;;13.80;96.50;;;;;;5068221;28;20060;-83
2022/04/13 05:39:04;;;;;;;8.18;3.33;;;13.80;96.40;;;;;;5068510;28;20060;-81
2022/04/13 05:41:30;;;;;;;8.05;3.75;;;13.80;96.40;;;;;;5067422;28;20457;-78
2022/04/13 05:43:56;;;;;;;10.90;3.92;;;13.90;96.40;;;;;;5068765;28;20058;-87
2022/04/13 05:46:22;;;;;;;11.45;4.10;;;13.90;96.30;;;;;;5070506;28;20025;-86
2022/04/13 05:48:50;;;;;;;8.73;4.25;;;13.90;96.30;;;;;;5072387;28;20035;-82
2022/04/13 05:51:16;;;;;;;12.40;4.35;;;13.80;96.50;;;;;;5072062;28;20032;-82
2022/04/13 05:53:42;;;;;;;11.65;4.38;;;13.80;96.60;;;;;;5072305;28;20032;-81
2022/04/13 05:56:07;;;;;;;8.93;4.45;;;13.90;96.50;;;;;;5052635;28;20048;-80
2022/04/13 05:58:33;;;;;;;12.88;4.70;;;13.90;96.60;;;;;;5071652;28;20043;-79
2022/04/13 06:00:59;;;;;;;11.10;4.28;;;13.90;96.70;;;;;;5071463;28;20346;-82
2022/04/13 06:03:25;;;;;;;12.85;4.47;;;13.90;96.80;;;;;;5072017;28;20028;-82
2022/04/13 06:05:51;;;;;;;12.00;3.90;;;13.90;96.80;;;;;;5071377;28;20033;-81
2022/04/13 06:08:17;;;;;;;12.73;3.30;;;13.90;96.90;;;;;;5071611;28;20460;-83
2022/04/13 06:10:43;;;;;;;9.55;4.28;;;13.90;97.00;;;;;;5070478;28;20491;-81
2022/04/13 06:13:09;;;;;;;11.70;4.03;;;13.90;97.20;;;;;;5069312;28;20396;-82
2022/04/13 06:15:35;;;;;;;10.98;3.85;;;14.00;97.10;;;;;;5070479;28;20070;-81
2022/04/13 06:18:01;;;;;;;9.98;4.10;;;14.00;97.00;;;;;;5070758;28;20036;-81
2022/04/13 06:20:27;;;;;;;9.05;3.80;;;14.10;96.70;;;;;;5070773;28;20025;-81
2022/04/13 06:22:52;;;;;;;10.88;3.80;;;14.10;96.50;;;;;;5070565;28;20035;-82
2022/04/13 06:25:18;;;;;;;11.55;3.05;;;14.20;96.40;;;;;;5070797;28;20032;-82
2022/04/13 06:27:44;;;;;;;12.60;3.70;;;14.20;96.20;;;;;;5069389;28;20060;-81
2022/04/13 06:30:11;;;;;;;10.23;3.78;;;14.30;96.20;;;;;;5070530;28;20056;-82
2022/04/13 06:32:41;;;;;;;10.32;3.95;;;14.30;96.20;;;;;;5070159;28;20060;-83
2022/04/13 06:35:11;;;;;;;11.73;4.13;;;14.40;96.10;;;;;;5070732;28;20479;-82
2022/04/13 06:37:39;;;;;;;11.15;4.47;;;14.50;96.00;;;;;;5070060;28;20042;-82
2022/04/13 06:40:06;;;;;;;13.98;4.80;;;14.60;95.90;;;;;;5069300;28;20028;-81
2022/04/13 06:42:33;;;;;;;9.52;3.88;;;14.70;95.80;;;;;;5068085;28;20048;-81
2022/04/13 06:45:00;;;;;;;12.30;4.47;;;14.70;95.70;;;;;;5068921;28;20031;-81
2022/04/13 06:47:26;;;;;;;14.02;4.68;;;14.80;95.70;;;;;;5068602;28;20125;-81
2022/04/13 06:49:52;;;;;;;16.60;5.32;;;14.80;95.50;;;;;;5068322;28;20024;-82
2022/04/13 06:52:18;;;;;;;10.30;4.43;;;14.80;95.50;;;;;;5051516;28;20035;-82
2022/04/13 06:54:43;;;;;;;11.35;4.45;;;14.90;95.50;;;;;;5069884;28;20082;-82
2022/04/13 06:57:09;;;;;;;12.32;4.82;;;15.00;95.50;;;;;;5067865;28;20051;-83
2022/04/13 06:59:35;;;;;;;15.07;5.25;;;15.00;95.50;;;;;;5068847;28;20036;-83
2022/04/13 07:02:03;;;;;;;14.50;5.78;;;15.00;95.60;;;;;;5068528;28;20379;-82
2022/04/13 07:04:28;;;;;;;16.77;7.43;;;15.10;95.50;;;;;;5067023;28;20035;-83
2022/04/13 07:06:54;;;;;;;15.70;6.65;;;15.10;95.40;;;;;;5069905;28;20032;-83
2022/04/13 07:09:20;;;;;;;15.18;6.97;;;15.20;95.30;;;;;;5069716;28;20066;-81
2022/04/13 07:11:46;;;;;;;15.85;6.75;;;15.20;95.30;;;;;;5066569;28;20315;-82
2022/04/13 07:14:13;;;;;;;27.23;9.68;;;15.30;95.20;;;;;;5068529;28;20060;-82
2022/04/13 07:16:39;;;;;;;18.52;9.82;;;15.30;95.00;;;;;;5069128;28;20108;-81
2022/04/13 07:19:05;;;;;;;34.78;13.82;;;15.30;95.00;;;;;;5050320;28;20103;-81
2022/04/13 07:21:31;;;;;;;27.05;12.77;;;15.40;95.00;;;;;;5069381;28;20024;-81
2022/04/13 07:23:57;;;;;;;23.83;11.50;;;15.40;95.00;;;;;;5069293;28;20515;-81
2022/04/13 07:26:23;;;;;;;24.50;11.52;;;15.40;95.00;;;;;;5070091;28;20085;-81
2022/04/13 07:28:49;;;;;;;18.92;9.70;;;15.40;94.90;;;;;;5071064;28;20040;-82
2022/04/13 07:31:15;;;;;;;17.63;9.07;;;15.40;95.00;;;;;;5053198;28;20029;-81
2022/04/13 07:33:40;;;;;;;18.15;8.73;;;15.40;95.10;;;;;;5070782;28;20095;-81
2022/04/13 07:36:06;;;;;;;19.50;8.50;;;15.40;95.00;;;;;;5070995;28;20043;-81
2022/04/13 07:38:32;;;;;;;14.68;8.32;;;15.40;95.00;;;;;;5071032;28;20029;-81
2022/04/13 07:41:01;;;;;;;29.08;11.25;;;15.50;95.10;;;;;;5071645;28;20032;-81
2022/04/13 07:43:26;;;;;;;18.88;8.93;;;15.50;95.10;;;;;;5071325;28;20059;-81
2022/04/13 07:45:52;;;;;;;20.98;10.05;;;15.50;95.20;;;;;;5071043;28;20437;-81
2022/04/13 07:48:18;;;;;;;24.23;8.90;;;15.60;95.20;;;;;;5070906;28;20476;-81
2022/04/13 07:50:44;;;;;;;20.10;9.32;;;15.60;95.10;;;;;;5053447;28;20060;-81
2022/04/13 07:53:11;;;;;;;18.80;9.23;;;15.60;95.10;;;;;;5070942;28;20044;-81
2022/04/13 07:55:37;;;;;;;20.45;9.18;;;15.60;95.00;;;;;;5070703;28;20123;-81
2022/04/13 07:58:03;;;;;;;25.30;11.43;;;15.70;95.00;;;;;;5070755;28;20321;-81
2022/04/13 08:00:28;;;;;;;26.38;10.20;;;15.80;95.20;;;;;;5071058;28;20276;-81
2022/04/13 08:02:54;;;;;;;24.63;10.90;;;15.90;95.10;;;;;;5070843;28;20063;-81
2022/04/13 08:05:22;;;;;;;21.15;8.85;;;15.90;95.10;;;;;;5070705;28;20433;-81
2022/04/13 08:07:47;;;;;;;21.08;9.57;;;15.90;95.10;;;;;;5070680;28;20031;-81
2022/04/13 08:10:13;;;;;;;18.95;9.20;;;16.00;95.10;;;;;;5069922;28;20040;-81
2022/04/13 08:12:40;;;;;;;25.77;9.90;;;16.00;94.90;;;;;;5070800;28;20028;-81
2022/04/13 08:15:06;;;;;;;17.45;8.73;;;16.10;94.90;;;;;;5070674;28;20062;-81
2022/04/13 08:17:32;;;;;;;23.15;10.77;;;16.20;94.90;;;;;;5070560;28;20033;-81
2022/04/13 08:19:59;;;;;;;21.90;10.13;;;16.10;95.00;;;;;;5070351;28;20036;-81
2022/04/13 08:22:27;;;;;;;30.52;14.98;;;16.20;95.00;;;;;;5070569;28;20373;-81
2022/04/13 08:24:53;;;;;;;26.85;11.00;;;16.30;94.80;;;;;;5078660;22;20060;-81
2022/04/13 08:27:19;;;;;;;24.50;9.75;;;16.30;94.90;;;;;;5050137;28;20025;-81
2022/04/13 08:29:49;;;;;;;26.52;9.52;;;16.40;94.90;;;;;;5048657;28;20036;-81
2022/04/13 08:32:19;;;;;;;16.75;7.82;;;16.40;94.90;;;;;;5032011;28;20039;-82
2022/04/13 08:34:46;;;;;;;18.48;7.93;;;16.50;95.20;;;;;;5015828;28;20128;-81
2022/04/13 08:37:15;;;;;;;22.85;7.85;;;16.50;95.00;;;;;;5049894;28;20052;-82
2022/04/13 08:39:41;;;;;;;16.83;7.05;;;16.60;94.90;;;;;;5032599;28;20074;-81
2022/04/13 08:42:11;;;;;;;18.77;7.97;;;16.50;94.90;;;;;;5031812;28;20134;-81
2022/04/13 08:44:46;;;;;;;20.55;8.05;;;16.70;95.00;;;;;;5050304;28;20125;-81
2022/04/13 08:47:15;;;;;;;22.27;8.25;;;16.60;94.80;;;;;;5050038;28;20029;-81
2022/04/13 08:49:44;;;;;;;22.38;8.20;;;16.60;94.80;;;;;;5032209;28;20419;-82
2022/04/13 08:52:13;;;;;;;24.98;9.65;;;16.70;94.80;;;;;;5032040;28;20083;-81
2022/04/13 08:55:16;;;;;;;;;;;16.70;95.20;;;;;;5050386;28;20091;-82
2022/04/13 08:57:50;;;;;;;27.27;10.35;;;16.80;95.10;;;;;;5008026;28;19908;-82
2022/04/13 09:00:18;;;;;;;27.23;9.85;;;16.90;94.80;;;;;;5016352;28;20075;-89
2022/04/13 09:02:50;;;;;;;20.77;9.40;;;17.00;95.20;;;;;;5049326;28;20052;-80
2022/04/13 09:05:18;;;;;;;24.88;10.15;;;17.00;94.80;;;;;;5048657;28;20025;-85
2022/04/13 09:07:49;;;;;;;24.23;9.40;;;17.10;94.70;;;;;;5048484;28;20481;-80
2022/04/13 09:10:21;;;;;;;29.08;10.40;;;17.10;94.80;;;;;;5048902;28;20029;-86
2022/04/13 09:12:50;;;;;;;22.88;9.43;;;17.10;95.00;;;;;;5029525;28;20043;-84
2022/04/13 09:15:16;;;;;;;19.55;9.23;;;17.20;95.20;;;;;;5031077;28;20059;-84
2022/04/13 09:17:42;;;;;;;33.00;11.77;;;17.20;94.90;;;;;;5015244;28;20453;-81
2022/04/13 09:20:09;;;;;;;23.02;9.60;;;17.20;95.00;;;;;;5049790;28;20037;-78
2022/04/13 09:22:37;;;;;;;28.65;9.80;;;17.20;95.00;;;;;;5052064;28;20514;-77
2022/04/13 09:25:05;;;;;;;22.40;9.27;;;17.20;95.50;;;;;;5052616;28;20079;-77
2022/04/13 09:27:32;;;;;;;28.25;10.15;;;17.10;95.20;;;;;;5053710;28;20039;-77
2022/04/13 09:29:58;;;;;;;21.92;9.85;;;17.10;95.40;;;;;;5052710;28;20029;-77
2022/04/13 09:32:24;;;;;;;21.52;8.68;;;17.20;95.10;;;;;;5052941;28;20565;-78
2022/04/13 09:34:51;;;;;;;16.08;6.80;;;17.20;95.30;;;;;;5053173;28;20109;-78
2022/04/13 09:37:18;;;;;;;20.05;7.50;;;17.20;95.50;;;;;;5053169;28;20021;-78
2022/04/13 09:39:46;;;;;;;16.38;6.78;;;17.20;95.40;;;;;;5053188;28;20090;-78
2022/04/13 09:42:13;;;;;;;18.88;6.32;;;17.20;95.20;;;;;;5052832;28;20557;-77
2022/04/13 09:44:43;;;;;;;16.13;6.60;;;17.30;95.10;;;;;;5035266;28;20477;-78
2022/04/13 09:47:10;;;;;;;19.90;6.93;;;17.30;94.80;;;;;;5053335;28;20037;-78
2022/04/13 09:49:45;;;;;;;19.08;6.40;;;17.30;94.70;;;;;;5052668;28;20303;-78
2022/04/13 09:52:11;;;;;;;16.85;6.05;;;17.30;94.80;;;;;;5052443;28;20025;-78
2022/04/13 09:54:44;;;;;;;15.02;6.13;;;17.30;94.90;;;;;;5053034;28;20033;-78
2022/04/13 09:57:23;;;;;;;14.98;6.22;;;17.30;94.60;;;;;;5035287;28;20052;-78
2022/04/13 09:59:58;;;;;;;10.45;4.97;;;17.30;94.60;;;;;;5053010;28;20078;-79
2022/04/13 10:02:53;;;;;;;16.48;6.32;;;17.30;94.70;;;;;;5052780;28;20029;-81
2022/04/13 10:05:18;;;;;;;14.07;6.82;;;17.40;94.60;;;;;;5035426;28;20120;-78
2022/04/13 10:07:44;;;;;;;16.20;6.30;;;17.50;94.50;;;;;;5053063;28;20108;-77
2022/04/13 10:10:25;;;;;;;19.77;6.65;;;17.50;94.40;;;;;;5053114;28;20033;-81
2022/04/13 10:12:52;;;;;;;14.60;5.25;;;17.50;94.60;;;;;;5052730;28;20029;-81
2022/04/13 10:15:18;;;;;;;12.70;5.60;;;17.50;94.90;;;;;;5053036;28;20059;-81
2022/04/13 10:17:44;;;;;;;13.95;5.63;;;17.60;94.60;;;;;;5034935;28;20025;-82
2022/04/13 10:20:10;;;;;;;12.60;5.57;;;17.70;94.40;;;;;;5052577;28;20489;-82
2022/04/13 10:23:00;;;;;;;20.52;6.35;;;17.70;94.40;;;;;;5034881;28;20049;-82
2022/04/13 10:25:27;;;;;;;17.33;7.03;;;17.90;94.50;;;;;;5052297;28;20040;-82
2022/04/13 10:27:55;;;;;;;12.02;5.18;;;18.10;94.30;;;;;;5052398;28;20090;-82
2022/04/13 10:30:26;;;;;;;9.48;5.45;;;18.10;94.60;;;;;;5034921;28;20033;-82
2022/04/13 10:33:03;;;;;;;12.43;5.50;;;18.20;94.20;;;;;;5033652;28;20028;-81
2022/04/13 10:35:30;;;;;;;16.10;5.90;;;18.30;94.40;;;;;;5052585;28;20037;-82
2022/04/13 10:37:57;;;;;;;15.10;6.00;;;18.40;94.00;;;;;;5034592;28;20075;-82
2022/04/13 10:40:24;;;;;;;11.77;5.18;;;18.40;94.00;;;;;;5052929;28;20503;-82
2022/04/13 10:42:52;;;;;;;13.95;4.82;;;18.30;94.10;;;;;;5034570;28;20032;-82
2022/04/13 10:45:18;;;;;;;11.57;4.40;;;18.40;94.30;;;;;;5018132;28;20135;-82
2022/04/13 10:48:02;;;;;;;12.57;4.72;;;18.60;93.30;;;;;;5034479;28;20029;-82
2022/04/13 10:50:36;;;;;;;14.23;5.28;;;18.60;92.80;;;;;;5034674;28;20559;-82
2022/04/13 10:53:22;;;;;;;14.35;5.57;;;18.60;93.40;;;;;;5052380;28;20048;-82
2022/04/13 10:56:10;;;;;;;15.40;5.80;;;18.60;93.70;;;;;;5052515;28;20036;-82
2022/04/13 10:58:58;;;;;;;14.23;5.50;;;18.60;93.80;;;;;;5052103;28;20036;-82
2022/04/13 11:01:28;;;;;;;13.05;4.18;;;18.50;93.60;;;;;;5017982;28;20469;-82
2022/04/13 11:03:55;;;;;;;12.80;4.60;;;18.50;93.10;;;;;;5034458;28;20033;-82
2022/04/13 11:06:22;;;;;;;15.02;4.53;;;18.60;92.80;;;;;;5052081;28;20056;-82
2022/04/13 11:09:11;;;;;;;12.60;4.28;;;18.60;92.50;;;;;;5052582;28;20028;-82
2022/04/13 11:11:37;;;;;;;12.65;4.95;;;18.60;93.00;;;;;;5034121;28;20498;-81
2022/04/13 11:14:23;;;;;;;13.77;4.38;;;18.60;92.80;;;;;;5052052;28;20063;-82
2022/04/13 11:17:07;;;;;;;14.10;4.30;;;18.70;92.70;;;;;;5051876;28;20040;-82
2022/04/13 11:19:33;;;;;;;10.55;3.25;;;18.60;92.40;;;;;;5033890;28;20063;-82
2022/04/13 11:21:59;;;;;;;10.18;3.63;;;18.60;92.20;;;;;;5017693;28;20045;-82
2022/04/13 11:24:36;;;;;;;12.02;3.38;;;18.60;92.00;;;;;;5051880;28;20477;-82
2022/04/13 11:27:03;;;;;;;13.27;4.28;;;18.60;91.80;;;;;;5051729;28;20037;-82
2022/04/13 11:29:55;;;;;;;13.15;4.65;;;18.60;92.20;;;;;;5052277;28;20041;-82
2022/04/13 11:32:25;;;;;;;9.32;4.55;;;18.70;92.40;;;;;;5051350;28;20028;-82
2022/04/13 11:34:51;;;;;;;16.85;4.63;;;18.70;92.20;;;;;;5051993;28;20056;-82
2022/04/13 11:37:25;;;;;;;8.48;3.55;;;18.70;92.20;;;;;;5017345;28;20043;-82
2022/04/13 11:39:57;;;;;;;12.35;4.20;;;18.80;92.20;;;;;;5051736;28;20056;-82
2022/04/13 11:42:25;;;;;;;9.80;4.35;;;18.70;92.30;;;;;;5017284;28;20045;-82
2022/04/13 11:45:11;;;;;;;10.95;4.65;;;18.70;92.20;;;;;;5017069;28;20079;-82
2022/04/13 11:47:43;;;;;;;9.23;3.88;;;18.70;92.70;;;;;;5033726;28;20048;-82
2022/04/13 11:50:18;;;;;;;15.73;5.95;;;18.70;92.50;;;;;;5051737;28;20112;-82
2022/04/13 11:52:49;;;;;;;13.63;5.75;;;18.70;92.70;;;;;;5051352;28;20060;-83
2022/04/13 11:55:31;;;;;;;14.77;6.65;;;18.70;93.00;;;;;;5033768;28;20033;-82
2022/04/13 11:58:04;;;;;;;9.95;4.85;;;18.70;92.90;;;;;;5033323;28;20032;-83
2022/04/13 12:00:42;;;;;;;10.73;5.75;;;18.70;92.80;;;;;;5033368;28;20512;-82
2022/04/13 12:03:16;;;;;;;11.07;5.38;;;18.80;92.80;;;;;;5051056;28;20063;-82
2022/04/13 12:05:53;;;;;;;10.52;5.68;;;18.90;92.50;;;;;;5051151;28;20026;-82
2022/04/13 12:08:35;;;;;;;11.15;4.45;;;18.90;92.70;;;;;;5033190;28;20033;-81
2022/04/13 12:11:19;;;;;;;11.27;5.63;;;18.90;92.70;;;;;;5033422;28;20033;-82
2022/04/13 12:13:48;;;;;;;13.25;6.32;;;18.90;92.90;;;;;;5051205;28;20033;-82
2022/04/13 12:16:23;;;;;;;13.57;5.63;;;19.00;92.90;;;;;;5051074;28;20029;-82
2022/04/13 12:18:50;;;;;;;12.40;5.80;;;19.10;92.90;;;;;;5050763;28;20036;-82
2022/04/13 12:21:17;;;;;;;12.00;6.20;;;19.10;92.70;;;;;;5033172;28;20481;-82
2022/04/13 12:23:44;;;;;;;9.90;5.78;;;19.20;92.10;;;;;;5033125;28;20116;-82
2022/04/13 12:26:10;;;;;;;13.20;6.07;;;19.30;92.00;;;;;;5032958;28;20033;-82
2022/04/13 12:28:37;;;;;;;13.25;6.03;;;19.40;92.00;;;;;;5051050;28;20033;-82
2022/04/13 12:31:11;;;;;;;13.65;6.03;;;19.40;91.90;;;;;;5033314;28;20059;-83
2022/04/13 12:33:39;;;;;;;13.18;5.20;;;19.40;92.30;;;;;;5050820;28;20366;-82
2022/04/13 12:36:16;;;;;;;11.80;5.10;;;19.40;92.20;;;;;;5032961;28;20032;-82
2022/04/13 12:38:55;;;;;;;12.35;5.30;;;19.50;91.70;;;;;;5032772;28;20025;-82
2022/04/13 12:41:23;;;;;;;10.70;5.40;;;19.50;91.50;;;;;;5050936;28;20037;-82
2022/04/13 12:44:03;;;;;;;12.15;4.80;;;19.50;91.60;;;;;;5033112;28;20025;-82
2022/04/13 12:46:32;;;;;;;10.80;4.85;;;19.50;92.00;;;;;;5032742;28;20413;-82
2022/04/13 12:49:01;;;;;;;11.50;5.70;;;19.50;91.90;;;;;;5050696;28;20033;-82